createdAt,value
2022-12-29T00:01:56.258Z,100.00
2022-12-29T00:04:23.058Z,100.00
2022-12-29T00:06:49.478Z,100.00
2022-12-29T00:09:17.564Z,100.00
2022-12-29T00:11:44.383Z,100.00
2022-12-29T00:14:30.540Z,100.00
2022-12-29T00:16:57.487Z,100.00
2022-12-29T00:19:42.966Z,100.00
2022-12-29T00:22:30.694Z,100.00
2022-12-29T00:25:06.315Z,100.00
2022-12-29T00:27:51.967Z,100.00
2022-12-29T00:30:40.943Z,100.00
2022-12-29T00:33:38.982Z,100.00
2022-12-29T00:36:07.256Z,100.00
2022-12-29T00:38:57.439Z,100.00
2022-12-29T00:41:44.406Z,100.00
2022-12-29T00:44:13.643Z,100.00
2022-12-29T00:46:42.627Z,100.00
2022-12-29T00:49:30.140Z,100.00
2022-12-29T00:52:05.744Z,100.00
2022-12-29T00:54:35.125Z,100.00
2022-12-29T00:57:02.689Z,100.00
2022-12-29T00:59:29.212Z,100.00
2022-12-29T01:01:57.850Z,100.00
2022-12-29T01:04:26.313Z,100.00
2022-12-29T01:06:53.576Z,100.00
2022-12-29T01:09:39.144Z,100.00
2022-12-29T01:12:06.719Z,100.00
2022-12-29T01:14:35.227Z,100.00
2022-12-29T01:17:03.066Z,100.00
2022-12-29T01:19:29.460Z,100.00
2022-12-29T01:21:56.612Z,100.00
2022-12-29T01:24:23.192Z,100.00
2022-12-29T01:26:49.873Z,100.00
2022-12-29T01:29:17.646Z,100.00
2022-12-29T01:31:45.950Z,100.00
2022-12-29T01:34:12.778Z,100.00
2022-12-29T01:36:39.201Z,100.00
2022-12-29T01:39:07.041Z,100.00
2022-12-29T01:41:34.074Z,99.96
2022-12-29T01:44:02.569Z,100.00
2022-12-29T01:46:37.576Z,100.00
2022-12-29T01:49:03.900Z,99.10
2022-12-29T01:51:34.029Z,99.04
2022-12-29T01:54:06.553Z,98.55
2022-12-29T01:56:34.037Z,97.59
2022-12-29T01:59:07.411Z,97.34
2022-12-29T02:01:33.895Z,97.48
2022-12-29T02:04:02.128Z,96.73
2022-12-29T02:06:42.262Z,95.71
2022-12-29T02:09:08.637Z,95.94
2022-12-29T02:11:37.219Z,95.62
2022-12-29T02:14:10.037Z,94.50
2022-12-29T02:17:20.725Z,93.83
2022-12-29T02:20:12.336Z,93.97
2022-12-29T02:22:56.990Z,93.43
2022-12-29T02:25:46.374Z,92.86
2022-12-29T02:28:21.905Z,92.61
2022-12-29T02:30:57.664Z,92.73
2022-12-29T02:33:39.203Z,92.85
2022-12-29T02:36:44.235Z,92.67
2022-12-29T02:39:39.026Z,92.01
2022-12-29T02:42:25.281Z,91.84
2022-12-29T02:45:03.645Z,92.01
2022-12-29T02:47:45.273Z,91.21
2022-12-29T02:50:34.157Z,90.91
2022-12-29T02:53:06.178Z,90.45
2022-12-29T02:55:34.469Z,90.43
2022-12-29T02:58:16.967Z,90.38
2022-12-29T03:01:14.720Z,90.63
2022-12-29T03:04:12.271Z,90.82
2022-12-29T03:06:54.057Z,90.94
2022-12-29T03:09:38.542Z,91.47
2022-12-29T03:12:45.921Z,92.02
2022-12-29T03:15:41.022Z,91.82
2022-12-29T03:18:24.165Z,91.30
2022-12-29T03:20:56.835Z,91.39
2022-12-29T03:23:26.623Z,91.58
2022-12-29T03:25:58.143Z,91.09
2022-12-29T03:28:31.560Z,91.27
2022-12-29T03:31:00.059Z,90.64
2022-12-29T03:33:31.279Z,90.45
2022-12-29T03:36:06.024Z,90.11
2022-12-29T03:38:38.876Z,89.62
2022-12-29T03:41:10.413Z,90.11
2022-12-29T03:43:36.944Z,90.40
2022-12-29T03:46:03.686Z,93.09
2022-12-29T03:48:30.252Z,94.71
2022-12-29T03:50:56.931Z,94.48
2022-12-29T03:53:23.645Z,94.05
2022-12-29T03:55:50.352Z,94.25
2022-12-29T03:58:16.912Z,93.90
2022-12-29T04:00:55.920Z,93.59
2022-12-29T04:03:23.018Z,95.58
2022-12-29T04:05:50.415Z,96.60
2022-12-29T04:08:16.973Z,97.38
2022-12-29T04:10:43.690Z,97.64
2022-12-29T04:13:10.139Z,97.66
2022-12-29T04:15:36.940Z,97.61
2022-12-29T04:18:03.518Z,97.83
2022-12-29T04:20:48.522Z,97.63
2022-12-29T04:23:16.737Z,97.18
2022-12-29T04:25:48.222Z,96.33
2022-12-29T04:28:16.790Z,95.31
2022-12-29T04:31:03.152Z,94.03
2022-12-29T04:33:34.872Z,92.45
2022-12-29T04:36:01.910Z,92.41
2022-12-29T04:38:28.766Z,92.59
2022-12-29T04:40:55.335Z,91.44
2022-12-29T04:43:23.922Z,91.62
2022-12-29T04:46:02.920Z,90.89
2022-12-29T04:48:36.581Z,90.81
2022-12-29T04:51:21.805Z,90.45
2022-12-29T04:53:49.989Z,89.60
2022-12-29T04:56:16.371Z,89.49
2022-12-29T04:58:43.005Z,88.52
2022-12-29T05:01:09.520Z,88.38
2022-12-29T05:03:36.032Z,88.81
2022-12-29T05:06:02.480Z,89.03
2022-12-29T05:08:29.469Z,90.23
2022-12-29T05:10:58.947Z,92.80
2022-12-29T05:13:26.125Z,95.56
2022-12-29T05:15:54.226Z,98.95
2022-12-29T05:18:22.769Z,100.00
2022-12-29T05:20:50.356Z,100.00
2022-12-29T05:23:18.808Z,100.00
2022-12-29T05:25:49.975Z,100.00
2022-12-29T05:28:36.701Z,100.00
2022-12-29T05:31:11.965Z,100.00
2022-12-29T05:33:38.936Z,100.00
2022-12-29T05:36:08.251Z,95.75
2022-12-29T05:38:36.741Z,93.61
2022-12-29T05:41:03.425Z,93.80
2022-12-29T05:43:48.362Z,89.80
2022-12-29T05:46:29.983Z,88.42
2022-12-29T05:49:31.866Z,87.89
2022-12-29T05:52:09.630Z,88.70
2022-12-29T05:54:36.109Z,89.43
2022-12-29T05:57:07.775Z,89.24
2022-12-29T05:59:34.860Z,89.78
2022-12-29T06:02:02.375Z,90.37
2022-12-29T06:04:28.936Z,90.89
2022-12-29T06:06:55.981Z,90.88
2022-12-29T06:09:31.488Z,90.80
2022-12-29T06:11:58.105Z,91.41
2022-12-29T06:14:25.354Z,91.78
2022-12-29T06:16:52.059Z,92.21
2022-12-29T06:19:18.512Z,92.23
2022-12-29T06:21:45.012Z,92.85
2022-12-29T06:24:11.978Z,93.03
2022-12-29T06:26:38.627Z,93.79
2022-12-29T06:29:05.072Z,93.41
2022-12-29T06:31:32.832Z,93.27
2022-12-29T06:34:04.921Z,93.00
2022-12-29T06:36:34.462Z,92.75
2022-12-29T06:39:00.841Z,92.21
2022-12-29T06:41:32.171Z,91.78
2022-12-29T06:44:25.653Z,91.80
2022-12-29T06:47:01.351Z,91.91
2022-12-29T06:49:27.741Z,91.96
2022-12-29T06:51:54.132Z,91.90
2022-12-29T06:54:20.535Z,91.62
2022-12-29T06:56:47.017Z,91.61
2022-12-29T06:59:13.492Z,91.14
2022-12-29T07:01:40.715Z,91.47
2022-12-29T07:04:07.284Z,91.48
2022-12-29T07:06:33.685Z,91.25
2022-12-29T07:09:00.127Z,90.85
2022-12-29T07:11:26.599Z,90.51
2022-12-29T07:13:53.088Z,90.89
2022-12-29T07:16:19.844Z,89.90
2022-12-29T07:18:46.363Z,89.93
2022-12-29T07:21:13.049Z,88.82
2022-12-29T07:23:39.534Z,88.42
2022-12-29T07:26:08.365Z,88.76
2022-12-29T07:28:39.017Z,88.27
2022-12-29T07:31:06.935Z,87.95
2022-12-29T07:33:34.021Z,87.67
2022-12-29T07:36:00.891Z,87.52
2022-12-29T07:38:27.368Z,86.78
2022-12-29T07:40:58.211Z,87.14
2022-12-29T07:43:24.764Z,85.93
2022-12-29T07:46:54.025Z,85.28
2022-12-29T07:48:57.904Z,84.46
2022-12-29T07:51:24.294Z,82.50
2022-12-29T07:53:50.650Z,81.84
2022-12-29T07:56:17.039Z,81.66
2022-12-29T07:58:43.615Z,81.82
2022-12-29T08:01:10.129Z,81.92
2022-12-29T08:03:37.352Z,81.60
2022-12-29T08:06:04.017Z,82.33
2022-12-29T08:08:30.381Z,82.18
2022-12-29T08:10:56.762Z,81.81
2022-12-29T08:13:23.140Z,81.89
2022-12-29T08:15:50.461Z,81.78
2022-12-29T08:18:16.918Z,81.89
2022-12-29T08:20:43.303Z,81.85
2022-12-29T08:23:09.692Z,82.48
2022-12-29T08:25:36.110Z,81.58
2022-12-29T08:28:02.568Z,82.76
2022-12-29T08:30:28.998Z,83.05
2022-12-29T08:32:55.416Z,82.90
2022-12-29T08:35:22.278Z,83.18
2022-12-29T08:37:48.801Z,83.62
2022-12-29T08:40:15.586Z,83.21
2022-12-29T08:42:42.008Z,83.17
2022-12-29T08:45:09.599Z,82.78
2022-12-29T08:47:36.187Z,83.26
2022-12-29T08:50:02.918Z,83.49
2022-12-29T08:52:29.307Z,82.51
2022-12-29T08:54:55.781Z,81.35
2022-12-29T08:57:22.258Z,81.92
2022-12-29T09:00:04.338Z,81.70
2022-12-29T09:02:30.977Z,81.14
2022-12-29T09:04:58.280Z,80.79
2022-12-29T09:07:24.816Z,80.94
2022-12-29T09:09:52.259Z,80.79
2022-12-29T09:12:19.105Z,80.86
2022-12-29T09:14:47.655Z,81.39
2022-12-29T09:17:32.515Z,80.98
2022-12-29T09:19:59.200Z,81.39
2022-12-29T09:22:25.790Z,80.89
2022-12-29T09:24:52.451Z,81.40
2022-12-29T09:27:18.846Z,81.01
2022-12-29T09:29:45.237Z,81.22
2022-12-29T09:32:17.100Z,80.56
2022-12-29T09:34:44.931Z,80.41
2022-12-29T09:37:11.359Z,80.36
2022-12-29T09:39:37.717Z,80.19
2022-12-29T09:42:09.579Z,80.12
2022-12-29T09:44:44.684Z,79.33
2022-12-29T09:47:15.483Z,79.30
2022-12-29T09:49:47.234Z,79.47
2022-12-29T09:52:21.895Z,77.66
2022-12-29T09:55:02.386Z,76.40
2022-12-29T09:57:50.247Z,76.26
2022-12-29T10:00:20.023Z,75.85
2022-12-29T10:03:20.416Z,76.24
2022-12-29T10:05:58.833Z,76.26
2022-12-29T10:08:47.179Z,75.43
2022-12-29T10:11:44.229Z,75.47
2022-12-29T10:14:29.184Z,75.39
2022-12-29T10:17:19.294Z,74.54
2022-12-29T10:19:54.393Z,75.14
2022-12-29T10:22:29.843Z,75.49
2022-12-29T10:24:57.608Z,74.45
2022-12-29T10:27:31.831Z,75.23
2022-12-29T10:30:00.288Z,74.82
2022-12-29T10:32:49.648Z,75.14
2022-12-29T10:35:25.135Z,74.89
2022-12-29T10:37:58.190Z,74.43
2022-12-29T10:40:39.627Z,73.38
2022-12-29T10:43:24.862Z,73.46
2022-12-29T10:45:54.689Z,73.75
2022-12-29T10:48:31.662Z,74.20
2022-12-29T10:51:02.661Z,74.25
2022-12-29T10:53:39.029Z,73.61
2022-12-29T10:56:17.627Z,73.20
2022-12-29T10:58:50.053Z,73.32
2022-12-29T11:01:18.382Z,73.30
2022-12-29T11:04:12.033Z,74.01
2022-12-29T11:06:38.743Z,73.07
2022-12-29T11:09:17.194Z,73.04
2022-12-29T11:11:43.656Z,73.46
2022-12-29T11:14:19.184Z,73.49
2022-12-29T11:16:57.064Z,73.27
2022-12-29T11:19:25.728Z,72.72
2022-12-29T11:21:52.670Z,74.04
2022-12-29T11:24:28.426Z,71.98
2022-12-29T11:27:09.185Z,71.74
2022-12-29T11:29:42.286Z,71.23
2022-12-29T11:32:20.265Z,71.66
2022-12-29T11:34:51.201Z,71.09
2022-12-29T11:37:30.248Z,70.84
2022-12-29T11:40:05.399Z,70.34
2022-12-29T11:42:38.947Z,70.97
2022-12-29T11:45:28.847Z,71.59
2022-12-29T11:48:01.836Z,71.43
2022-12-29T11:50:31.887Z,70.33
2022-12-29T11:53:01.397Z,71.01
2022-12-29T11:55:28.981Z,69.18
2022-12-29T11:57:57.847Z,69.75
2022-12-29T12:00:26.666Z,68.84
2022-12-29T12:03:04.045Z,69.56
2022-12-29T12:05:44.438Z,69.49
2022-12-29T12:08:38.153Z,68.44
2022-12-29T12:11:16.199Z,68.57
2022-12-29T12:13:55.564Z,69.32
2022-12-29T12:16:27.842Z,69.98
2022-12-29T12:19:21.023Z,69.80
2022-12-29T12:21:56.988Z,69.79
2022-12-29T12:24:38.729Z,70.88
2022-12-29T12:27:29.997Z,70.36
2022-12-29T12:30:03.862Z,70.58
2022-12-29T12:32:43.672Z,70.43
2022-12-29T12:35:39.119Z,70.93
2022-12-29T12:38:12.994Z,70.73
2022-12-29T12:41:04.639Z,70.97
2022-12-29T12:43:41.804Z,71.09
2022-12-29T12:46:38.843Z,70.92
2022-12-29T12:49:27.249Z,72.11
2022-12-29T12:52:27.710Z,71.88
2022-12-29T12:55:07.432Z,71.98
2022-12-29T12:58:00.607Z,71.76
2022-12-29T13:00:32.727Z,71.73
2022-12-29T13:03:38.806Z,71.98
2022-12-29T13:06:18.172Z,70.82
2022-12-29T13:08:44.491Z,71.31
2022-12-29T13:11:36.109Z,72.22
2022-12-29T13:14:05.645Z,72.08
2022-12-29T13:16:58.177Z,72.97
2022-12-29T13:20:03.431Z,73.79
2022-12-29T13:22:54.220Z,72.61
2022-12-29T13:25:28.997Z,73.02
2022-12-29T13:28:10.751Z,72.92
2022-12-29T13:30:46.104Z,72.94
2022-12-29T13:33:24.864Z,72.84
2022-12-29T13:36:04.818Z,72.67
2022-12-29T13:38:37.567Z,72.54
2022-12-29T13:41:12.930Z,72.98
2022-12-29T13:43:43.116Z,73.04
2022-12-29T13:46:24.573Z,73.38
2022-12-29T13:48:56.131Z,74.05
2022-12-29T13:51:28.066Z,74.40
2022-12-29T13:54:26.171Z,74.62
2022-12-29T13:57:11.492Z,76.75
2022-12-29T13:59:47.060Z,78.20
2022-12-29T14:02:27.580Z,77.69
2022-12-29T14:05:19.113Z,79.04
2022-12-29T14:07:45.958Z,80.75
2022-12-29T14:10:46.016Z,81.16
2022-12-29T14:13:17.443Z,80.19
2022-12-29T14:15:51.334Z,79.48
2022-12-29T14:18:20.434Z,79.62
2022-12-29T14:20:55.143Z,78.48
2022-12-29T14:23:43.257Z,79.17
2022-12-29T14:26:36.467Z,78.00
2022-12-29T14:29:30.103Z,78.09
2022-12-29T14:31:56.955Z,77.00
2022-12-29T14:34:23.312Z,77.67
2022-12-29T14:36:52.648Z,77.21
2022-12-29T14:39:36.472Z,75.89
2022-12-29T14:42:06.006Z,75.78
2022-12-29T14:44:33.818Z,75.94
2022-12-29T14:47:07.673Z,75.81
2022-12-29T14:49:43.660Z,75.49
2022-12-29T14:52:28.127Z,75.06
2022-12-29T14:55:01.250Z,74.81
2022-12-29T14:57:30.965Z,74.94
2022-12-29T15:00:05.320Z,74.77
2022-12-29T15:02:39.198Z,74.71
2022-12-29T15:05:07.453Z,74.45
2022-12-29T15:07:35.434Z,74.72
2022-12-29T15:10:12.683Z,74.87
2022-12-29T15:12:44.382Z,74.92
2022-12-29T15:15:29.289Z,75.30
2022-12-29T15:17:55.900Z,74.71
2022-12-29T15:20:32.427Z,76.12
2022-12-29T15:23:03.346Z,76.31
2022-12-29T15:25:31.592Z,77.15
2022-12-29T15:28:06.976Z,77.34
2022-12-29T15:30:33.910Z,79.20
2022-12-29T15:33:00.431Z,78.80
2022-12-29T15:35:38.278Z,78.12
2022-12-29T15:38:17.559Z,78.20
2022-12-29T15:40:47.344Z,77.05
2022-12-29T15:43:44.862Z,76.32
2022-12-29T15:46:13.844Z,76.54
2022-12-29T15:48:41.375Z,75.84
2022-12-29T15:51:34.250Z,76.33
2022-12-29T15:54:00.952Z,76.14
2022-12-29T15:56:33.369Z,75.41
2022-12-29T15:59:00.898Z,74.44
2022-12-29T16:01:36.376Z,73.83
2022-12-29T16:04:08.440Z,74.16
2022-12-29T16:06:35.825Z,74.08
2022-12-29T16:09:17.321Z,74.86
2022-12-29T16:11:48.420Z,75.26
2022-12-29T16:14:19.514Z,74.90
2022-12-29T16:16:48.414Z,74.90
2022-12-29T16:19:22.725Z,75.67
2022-12-29T16:21:49.413Z,75.88
2022-12-29T16:24:19.489Z,77.84
2022-12-29T16:26:49.538Z,79.10
2022-12-29T16:29:16.959Z,81.30
2022-12-29T16:31:49.570Z,81.86
2022-12-29T16:34:29.514Z,82.50
2022-12-29T16:37:23.307Z,82.33
2022-12-29T16:39:49.728Z,84.38
2022-12-29T16:42:36.141Z,87.17
2022-12-29T16:45:20.832Z,90.10
2022-12-29T16:47:49.487Z,93.16
2022-12-29T16:50:28.282Z,94.21
2022-12-29T16:52:55.147Z,97.82
2022-12-29T16:55:21.639Z,100.00
2022-12-29T16:57:49.968Z,100.00
2022-12-29T17:00:21.877Z,100.00
2022-12-29T17:02:50.408Z,100.00
2022-12-29T17:05:18.475Z,100.00
2022-12-29T17:07:45.782Z,100.00
2022-12-29T17:10:14.661Z,100.00
2022-12-29T17:12:44.479Z,100.00
2022-12-29T17:15:17.634Z,100.00
2022-12-29T17:17:47.480Z,100.00
2022-12-29T17:20:18.310Z,100.00
2022-12-29T17:22:45.878Z,100.00
2022-12-29T17:25:15.308Z,100.00
2022-12-29T17:27:45.393Z,100.00
2022-12-29T17:30:17.895Z,100.00
2022-12-29T17:32:49.554Z,100.00
2022-12-29T17:35:17.572Z,100.00
2022-12-29T17:37:44.470Z,100.00
2022-12-29T17:40:15.825Z,100.00
2022-12-29T17:42:47.732Z,100.00
2022-12-29T17:45:26.117Z,100.00
2022-12-29T17:47:52.939Z,100.00
2022-12-29T17:50:22.126Z,100.00
2022-12-29T17:52:53.102Z,100.00
2022-12-29T17:55:22.530Z,100.00
2022-12-29T17:57:49.362Z,100.00
2022-12-29T18:00:24.315Z,100.00
2022-12-29T18:02:51.105Z,100.00
2022-12-29T18:05:29.901Z,100.00
2022-12-29T18:07:58.913Z,100.00
2022-12-29T18:10:28.530Z,100.00
2022-12-29T18:12:58.422Z,100.00
2022-12-29T18:15:30.978Z,100.00
2022-12-29T18:18:11.966Z,100.00
2022-12-29T18:20:39.684Z,100.00
2022-12-29T18:23:07.133Z,100.00
2022-12-29T18:26:11.915Z,100.00
2022-12-29T18:28:38.315Z,100.00
2022-12-29T18:31:16.041Z,100.00
2022-12-29T18:33:42.497Z,100.00
2022-12-29T18:36:12.338Z,100.00
2022-12-29T18:38:38.907Z,100.00
2022-12-29T18:41:05.770Z,100.00
2022-12-29T18:43:32.164Z,100.00
2022-12-29T18:45:59.099Z,100.00
2022-12-29T18:48:25.498Z,100.00
2022-12-29T18:50:53.153Z,100.00
2022-12-29T18:53:24.453Z,100.00
2022-12-29T18:55:52.467Z,100.00
2022-12-29T18:58:19.562Z,100.00
2022-12-29T19:00:46.857Z,100.00
2022-12-29T19:03:15.715Z,100.00
2022-12-29T19:05:44.027Z,100.00
2022-12-29T19:08:11.353Z,100.00
2022-12-29T19:10:39.257Z,100.00
2022-12-29T19:13:06.248Z,100.00
2022-12-29T19:15:39.977Z,100.00
2022-12-29T19:20:57.210Z,100.00
2022-12-29T19:23:25.620Z,100.00
2022-12-29T19:25:53.522Z,100.00
2022-12-29T19:28:26.810Z,100.00
2022-12-29T19:30:57.337Z,100.00
2022-12-29T19:33:24.269Z,100.00
2022-12-29T19:35:51.340Z,100.00
2022-12-29T19:38:18.543Z,100.00
2022-12-29T19:40:48.877Z,100.00
2022-12-29T19:43:15.779Z,100.00
2022-12-29T19:45:43.657Z,100.00
2022-12-29T19:48:18.074Z,100.00
2022-12-29T19:50:45.109Z,100.00
2022-12-29T19:53:12.334Z,100.00
2022-12-29T19:55:45.563Z,100.00
2022-12-29T19:58:13.219Z,100.00
2022-12-29T20:00:41.584Z,100.00
2022-12-29T20:03:08.652Z,100.00
2022-12-29T20:05:35.545Z,99.85
2022-12-29T20:08:01.958Z,100.00
2022-12-29T20:10:28.363Z,100.00
2022-12-29T20:12:54.797Z,99.16
2022-12-29T20:15:21.304Z,99.15
2022-12-29T20:18:15.390Z,99.06
2022-12-29T20:20:34.530Z,99.11
2022-12-29T20:23:00.905Z,99.27
2022-12-29T20:25:53.694Z,99.24
2022-12-29T20:28:16.823Z,98.85
2022-12-29T20:30:44.191Z,98.16
2022-12-29T20:33:10.698Z,98.31
2022-12-29T20:35:37.321Z,98.36
2022-12-29T20:38:05.040Z,98.11
2022-12-29T20:40:31.897Z,97.81
2022-12-29T20:42:58.364Z,98.02
2022-12-29T20:45:24.974Z,97.94
2022-12-29T20:47:51.454Z,97.92
2022-12-29T20:50:17.923Z,98.01
2022-12-29T20:52:44.555Z,98.21
2022-12-29T20:55:10.923Z,98.25
2022-12-29T20:57:57.493Z,97.95
2022-12-29T21:00:23.781Z,97.65
2022-12-29T21:02:50.485Z,96.94
2022-12-29T21:05:25.471Z,97.03
2022-12-29T21:07:53.056Z,97.25
2022-12-29T21:10:19.534Z,96.66
2022-12-29T21:12:46.108Z,96.42
2022-12-29T21:15:14.907Z,97.13
2022-12-29T21:17:42.803Z,96.53
2022-12-29T21:20:09.753Z,96.49
2022-12-29T21:22:36.125Z,96.54
2022-12-29T21:25:02.780Z,96.51
2022-12-29T21:27:29.188Z,96.82
2022-12-29T21:29:57.942Z,96.76
2022-12-29T21:32:24.429Z,96.71
2022-12-29T21:34:50.795Z,96.28
2022-12-29T21:37:23.215Z,95.87
2022-12-29T21:39:50.083Z,96.21
2022-12-29T21:42:16.482Z,96.09
2022-12-29T21:45:01.241Z,95.89
2022-12-29T21:47:47.628Z,96.40
2022-12-29T21:50:14.125Z,97.03
2022-12-29T21:52:40.676Z,96.56
2022-12-29T21:55:08.864Z,96.82
2022-12-29T21:57:55.075Z,97.05
2022-12-29T22:00:40.551Z,97.29
2022-12-29T22:03:26.164Z,97.26
2022-12-29T22:06:13.007Z,96.80
2022-12-29T22:08:58.778Z,96.99
2022-12-29T22:11:44.189Z,96.84
2022-12-29T22:14:10.591Z,97.14
2022-12-29T22:16:36.977Z,96.91
2022-12-29T22:19:03.473Z,97.14
2022-12-29T22:21:30.036Z,97.36
2022-12-29T22:23:56.430Z,97.16
2022-12-29T22:26:22.801Z,96.86
2022-12-29T22:28:51.849Z,96.38
2022-12-29T22:31:29.724Z,96.55
2022-12-29T22:33:58.046Z,95.97
2022-12-29T22:36:25.263Z,96.35
2022-12-29T22:38:52.162Z,96.13
2022-12-29T22:41:19.107Z,96.06
2022-12-29T22:43:45.727Z,96.40
2022-12-29T22:46:12.285Z,96.38
2022-12-29T22:48:38.860Z,96.34
2022-12-29T22:51:05.534Z,96.95
2022-12-29T22:53:32.019Z,96.61
2022-12-29T22:56:12.223Z,97.19
2022-12-29T22:58:43.001Z,96.58
2022-12-29T23:01:11.281Z,96.96
2022-12-29T23:03:38.171Z,96.77
2022-12-29T23:06:06.677Z,96.68
2022-12-29T23:08:35.876Z,95.96
2022-12-29T23:11:03.552Z,96.29
2022-12-29T23:13:30.469Z,96.86
2022-12-29T23:15:56.983Z,97.07
2022-12-29T23:18:23.559Z,97.00
2022-12-29T23:20:50.080Z,96.67
2022-12-29T23:23:46.438Z,96.24
2022-12-29T23:26:19.924Z,95.64
2022-12-29T23:28:46.702Z,95.23
2022-12-29T23:31:13.367Z,95.60
2022-12-29T23:33:39.998Z,96.05
2022-12-29T23:36:07.044Z,95.73
2022-12-29T23:38:33.685Z,95.80
2022-12-29T23:41:00.073Z,96.00
2022-12-29T23:43:26.775Z,95.78
2022-12-29T23:45:53.180Z,95.74
2022-12-29T23:48:19.848Z,96.15
2022-12-29T23:50:46.409Z,96.22
2022-12-29T23:53:12.839Z,96.15
2022-12-29T23:55:42.881Z,95.82
2022-12-29T23:58:10.109Z,96.09
